This is the latest recevied weather packets stored in our database for station/object SPDRWX. If no packets are shown the sender has not sent any weather packets the latest 10 day(s).
| Time | Temp. | Humidity | Pressure | Rain* | Wind** | Luminosity | Snow |
|---|---|---|---|---|---|---|---|
| 1777529467 | 6.67° C | 65% | 1014.1 hPa | 0 mm | - | - | - |
| 1777529164 | 6.67° C | 65% | 1014.2 hPa | 0 mm | - | - | - |
| 1777528259 | 7.22° C | 65% | 1014.2 hPa | 0 mm | - | - | - |
| 1777527958 | 7.22° C | 65% | 1014.1 hPa | 0 mm | - | - | - |
| 1777523747 | 8.89° C | 57% | 1014.2 hPa | 0 mm | - | - | - |
| 1777523438 | 9.44° C | 55% | 1014.3 hPa | 0 mm | - | - | - |
| 1777522834 | 9.44° C | 54% | 1014.2 hPa | 0 mm | - | - | - |
| 1777510866 | 12.22° C | 44% | 1013.8 hPa | 0 mm | - | - | - |
| 1777500287 | 15° C | 30% | 1014 hPa | 0 mm | - | - | - |
| 1777499351 | 15.56° C | 28% | 1013.9 hPa | 0 mm | - | - | - |
| 1777499030 | 15.56° C | 28% | 1013.9 hPa | 0 mm | - | - | - |
| 1777498964 | 15.56° C | 28% | 1014 hPa | 0 mm | - | - | - |
| 1777498462 | 15.56° C | 27% | 1014 hPa | 0 mm | - | - | - |
| 1777498082 | 15.56° C | 27% | 1013.9 hPa | 0 mm | - | - | - |
| 1777497267 | 15° C | 26% | 1014.1 hPa | 0 mm | - | - | - |
| 1777494854 | 13.33° C | 27% | 1014.1 hPa | 0 mm | - | - | - |
| 1777494554 | 13.33° C | 27% | 1014.2 hPa | 0 mm | - | - | - |
| 1777493952 | 13.33° C | 27% | 1014.3 hPa | 0 mm | - | - | - |
| 1777493653 | 13.33° C | 27% | 1014.2 hPa | 0 mm | - | - | - |
| 1777492747 | 12.78° C | 30% | 1014.3 hPa | 0 mm | - | - | - |
| 1777492447 | 12.78° C | 29% | 1014.3 hPa | 0 mm | - | - | - |
| 1777492144 | 12.78° C | 29% | 1014.5 hPa | 0 mm | - | - | - |
| 1777491842 | 12.78° C | 29% | 1014.5 hPa | 0 mm | - | - | - |
| 1777490939 | 12.78° C | 31% | 1014.6 hPa | 0 mm | - | - | - |
| 1777490036 | 12.22° C | 32% | 1014.7 hPa | 0 mm | - | - | - |
* Rain since midnight (hover to see other rain measurements)
** Current wind speed in m/s (hover to see current wind gust speed)